sensor_id;sensor_type;location;lat;lon;timestamp;P1;durP1;ratioP1;P2;durP2;ratioP2
30681;SDS011;17439;48.092;11.842;2023-06-10T00:01:43;4.25;;;2.90;;
30681;SDS011;17439;48.092;11.842;2023-06-10T00:04:10;11.05;;;3.33;;
30681;SDS011;17439;48.092;11.842;2023-06-10T00:06:36;4.50;;;3.13;;
30681;SDS011;17439;48.092;11.842;2023-06-10T00:09:03;3.70;;;2.90;;
30681;SDS011;17439;48.092;11.842;2023-06-10T00:11:32;4.32;;;3.17;;
30681;SDS011;17439;48.092;11.842;2023-06-10T00:13:59;4.55;;;3.38;;
30681;SDS011;17439;48.092;11.842;2023-06-10T00:16:26;4.32;;;2.60;;
30681;SDS011;17439;48.092;11.842;2023-06-10T00:18:53;5.30;;;3.15;;
30681;SDS011;17439;48.092;11.842;2023-06-10T00:21:19;4.03;;;3.08;;
30681;SDS011;17439;48.092;11.842;2023-06-10T00:23:46;5.50;;;3.47;;
30681;SDS011;17439;48.092;11.842;2023-06-10T00:26:13;3.83;;;2.85;;
30681;SDS011;17439;48.092;11.842;2023-06-10T00:28:41;4.38;;;3.33;;
30681;SDS011;17439;48.092;11.842;2023-06-10T00:31:07;3.75;;;3.17;;
30681;SDS011;17439;48.092;11.842;2023-06-10T00:33:34;3.60;;;2.97;;
30681;SDS011;17439;48.092;11.842;2023-06-10T00:36:01;7.53;;;4.40;;
30681;SDS011;17439;48.092;11.842;2023-06-10T00:38:28;6.50;;;4.05;;
30681;SDS011;17439;48.092;11.842;2023-06-10T00:40:55;4.38;;;3.10;;
30681;SDS011;17439;48.092;11.842;2023-06-10T00:43:23;4.45;;;3.28;;
30681;SDS011;17439;48.092;11.842;2023-06-10T00:45:50;3.83;;;2.95;;
30681;SDS011;17439;48.092;11.842;2023-06-10T00:48:18;6.28;;;3.17;;
30681;SDS011;17439;48.092;11.842;2023-06-10T00:50:46;4.93;;;3.47;;
30681;SDS011;17439;48.092;11.842;2023-06-10T00:53:13;4.10;;;3.20;;
30681;SDS011;17439;48.092;11.842;2023-06-10T00:55:40;5.07;;;3.10;;
30681;SDS011;17439;48.092;11.842;2023-06-10T00:58:08;4.35;;;3.20;;
30681;SDS011;17439;48.092;11.842;2023-06-10T01:00:35;8.27;;;3.80;;
30681;SDS011;17439;48.092;11.842;2023-06-10T01:03:02;6.22;;;3.33;;
30681;SDS011;17439;48.092;11.842;2023-06-10T01:05:30;4.40;;;2.95;;
30681;SDS011;17439;48.092;11.842;2023-06-10T01:08:00;5.22;;;3.00;;
30681;SDS011;17439;48.092;11.842;2023-06-10T01:10:36;5.65;;;3.65;;
30681;SDS011;17439;48.092;11.842;2023-06-10T01:13:07;3.70;;;2.72;;
30681;SDS011;17439;48.092;11.842;2023-06-10T01:15:37;4.47;;;3.33;;
30681;SDS011;17439;48.092;11.842;2023-06-10T01:18:06;4.53;;;3.10;;
30681;SDS011;17439;48.092;11.842;2023-06-10T01:20:35;4.90;;;2.90;;
30681;SDS011;17439;48.092;11.842;2023-06-10T01:23:03;4.05;;;3.25;;
30681;SDS011;17439;48.092;11.842;2023-06-10T01:25:29;4.80;;;3.30;;
30681;SDS011;17439;48.092;11.842;2023-06-10T01:30:58;3.83;;;2.75;;
30681;SDS011;17439;48.092;11.842;2023-06-10T01:33:39;3.67;;;2.88;;
30681;SDS011;17439;48.092;11.842;2023-06-10T01:36:13;3.85;;;2.80;;
30681;SDS011;17439;48.092;11.842;2023-06-10T01:38:43;4.82;;;3.17;;
30681;SDS011;17439;48.092;11.842;2023-06-10T01:41:13;5.93;;;3.47;;
30681;SDS011;17439;48.092;11.842;2023-06-10T01:43:43;4.75;;;2.95;;
30681;SDS011;17439;48.092;11.842;2023-06-10T01:46:12;4.07;;;3.00;;
30681;SDS011;17439;48.092;11.842;2023-06-10T01:48:39;6.40;;;4.05;;
30681;SDS011;17439;48.092;11.842;2023-06-10T01:51:08;6.10;;;4.15;;
30681;SDS011;17439;48.092;11.842;2023-06-10T01:53:35;5.13;;;3.47;;
30681;SDS011;17439;48.092;11.842;2023-06-10T01:56:02;4.72;;;3.17;;
30681;SDS011;17439;48.092;11.842;2023-06-10T01:58:28;5.25;;;3.58;;
30681;SDS011;17439;48.092;11.842;2023-06-10T02:00:55;5.80;;;3.75;;
30681;SDS011;17439;48.092;11.842;2023-06-10T02:03:22;5.80;;;3.70;;
30681;SDS011;17439;48.092;11.842;2023-06-10T02:05:49;5.40;;;3.50;;
30681;SDS011;17439;48.092;11.842;2023-06-10T02:08:16;4.55;;;3.22;;
30681;SDS011;17439;48.092;11.842;2023-06-10T02:10:42;4.00;;;3.45;;
30681;SDS011;17439;48.092;11.842;2023-06-10T02:13:09;5.50;;;2.90;;
30681;SDS011;17439;48.092;11.842;2023-06-10T02:15:36;4.55;;;3.20;;
30681;SDS011;17439;48.092;11.842;2023-06-10T02:18:02;6.88;;;3.15;;
30681;SDS011;17439;48.092;11.842;2023-06-10T02:20:29;4.45;;;3.45;;
30681;SDS011;17439;48.092;11.842;2023-06-10T02:22:56;5.45;;;4.40;;
30681;SDS011;17439;48.092;11.842;2023-06-10T02:25:23;6.57;;;3.70;;
30681;SDS011;17439;48.092;11.842;2023-06-10T02:27:50;6.68;;;3.97;;
30681;SDS011;17439;48.092;11.842;2023-06-10T02:30:16;4.40;;;3.25;;
30681;SDS011;17439;48.092;11.842;2023-06-10T02:32:43;4.05;;;3.00;;
30681;SDS011;17439;48.092;11.842;2023-06-10T02:35:10;3.88;;;2.97;;
30681;SDS011;17439;48.092;11.842;2023-06-10T02:37:37;4.63;;;3.22;;
30681;SDS011;17439;48.092;11.842;2023-06-10T02:40:04;4.05;;;3.60;;
30681;SDS011;17439;48.092;11.842;2023-06-10T02:42:31;4.53;;;3.22;;
30681;SDS011;17439;48.092;11.842;2023-06-10T02:44:59;6.55;;;3.88;;
30681;SDS011;17439;48.092;11.842;2023-06-10T02:47:34;4.95;;;3.42;;
30681;SDS011;17439;48.092;11.842;2023-06-10T02:50:02;4.95;;;3.80;;
30681;SDS011;17439;48.092;11.842;2023-06-10T02:52:33;5.40;;;3.25;;
30681;SDS011;17439;48.092;11.842;2023-06-10T02:55:00;9.48;;;5.22;;
30681;SDS011;17439;48.092;11.842;2023-06-10T02:57:27;10.82;;;5.72;;
30681;SDS011;17439;48.092;11.842;2023-06-10T02:59:54;13.30;;;6.40;;
30681;SDS011;17439;48.092;11.842;2023-06-10T03:02:21;12.00;;;6.30;;
30681;SDS011;17439;48.092;11.842;2023-06-10T03:04:50;11.10;;;5.18;;
30681;SDS011;17439;48.092;11.842;2023-06-10T03:07:18;6.85;;;4.43;;
30681;SDS011;17439;48.092;11.842;2023-06-10T03:09:45;8.48;;;5.00;;
30681;SDS011;17439;48.092;11.842;2023-06-10T03:12:13;4.95;;;3.58;;
30681;SDS011;17439;48.092;11.842;2023-06-10T03:14:44;8.98;;;4.15;;
30681;SDS011;17439;48.092;11.842;2023-06-10T03:17:11;6.85;;;4.15;;
30681;SDS011;17439;48.092;11.842;2023-06-10T03:19:40;5.57;;;3.85;;
30681;SDS011;17439;48.092;11.842;2023-06-10T03:22:08;5.20;;;3.58;;
30681;SDS011;17439;48.092;11.842;2023-06-10T03:24:40;5.65;;;3.80;;
30681;SDS011;17439;48.092;11.842;2023-06-10T03:27:10;5.90;;;3.58;;
30681;SDS011;17439;48.092;11.842;2023-06-10T03:29:38;6.90;;;3.88;;
30681;SDS011;17439;48.092;11.842;2023-06-10T03:32:06;5.72;;;3.78;;
30681;SDS011;17439;48.092;11.842;2023-06-10T03:34:35;4.25;;;3.17;;
30681;SDS011;17439;48.092;11.842;2023-06-10T03:37:02;5.45;;;3.95;;
30681;SDS011;17439;48.092;11.842;2023-06-10T03:39:30;4.70;;;3.95;;
30681;SDS011;17439;48.092;11.842;2023-06-10T03:44:27;6.38;;;3.65;;
30681;SDS011;17439;48.092;11.842;2023-06-10T03:46:54;5.97;;;3.50;;
30681;SDS011;17439;48.092;11.842;2023-06-10T03:49:21;4.65;;;3.35;;
30681;SDS011;17439;48.092;11.842;2023-06-10T03:51:48;6.15;;;3.70;;
30681;SDS011;17439;48.092;11.842;2023-06-10T03:54:15;6.55;;;4.10;;
30681;SDS011;17439;48.092;11.842;2023-06-10T03:56:42;5.07;;;3.38;;
30681;SDS011;17439;48.092;11.842;2023-06-10T03:59:08;7.07;;;4.13;;
30681;SDS011;17439;48.092;11.842;2023-06-10T04:01:35;5.68;;;4.28;;
30681;SDS011;17439;48.092;11.842;2023-06-10T04:04:02;6.65;;;4.18;;
30681;SDS011;17439;48.092;11.842;2023-06-10T04:06:32;5.18;;;4.10;;
30681;SDS011;17439;48.092;11.842;2023-06-10T04:08:59;5.40;;;3.95;;
30681;SDS011;17439;48.092;11.842;2023-06-10T04:13:56;4.38;;;3.30;;
30681;SDS011;17439;48.092;11.842;2023-06-10T04:16:24;3.60;;;2.88;;
30681;SDS011;17439;48.092;11.842;2023-06-10T04:18:51;4.45;;;3.85;;
30681;SDS011;17439;48.092;11.842;2023-06-10T04:21:18;5.05;;;3.50;;
30681;SDS011;17439;48.092;11.842;2023-06-10T04:23:48;5.65;;;4.13;;
30681;SDS011;17439;48.092;11.842;2023-06-10T04:26:15;4.53;;;4.10;;
30681;SDS011;17439;48.092;11.842;2023-06-10T04:28:45;4.70;;;3.78;;
30681;SDS011;17439;48.092;11.842;2023-06-10T04:31:12;5.03;;;3.60;;
30681;SDS011;17439;48.092;11.842;2023-06-10T04:33:40;3.92;;;3.20;;
30681;SDS011;17439;48.092;11.842;2023-06-10T04:36:07;3.90;;;3.08;;
30681;SDS011;17439;48.092;11.842;2023-06-10T04:38:35;5.28;;;3.58;;
30681;SDS011;17439;48.092;11.842;2023-06-10T04:41:01;7.50;;;4.18;;
30681;SDS011;17439;48.092;11.842;2023-06-10T04:43:31;5.80;;;4.00;;
30681;SDS011;17439;48.092;11.842;2023-06-10T04:45:59;5.97;;;4.40;;
30681;SDS011;17439;48.092;11.842;2023-06-10T04:48:27;5.78;;;4.72;;
30681;SDS011;17439;48.092;11.842;2023-06-10T04:50:58;5.30;;;3.72;;
30681;SDS011;17439;48.092;11.842;2023-06-10T04:53:25;7.30;;;4.88;;
30681;SDS011;17439;48.092;11.842;2023-06-10T04:55:51;6.18;;;4.72;;
30681;SDS011;17439;48.092;11.842;2023-06-10T04:58:18;5.85;;;3.97;;
30681;SDS011;17439;48.092;11.842;2023-06-10T05:00:45;12.18;;;4.50;;
30681;SDS011;17439;48.092;11.842;2023-06-10T05:03:12;5.45;;;3.97;;
30681;SDS011;17439;48.092;11.842;2023-06-10T05:05:39;6.13;;;4.43;;
30681;SDS011;17439;48.092;11.842;2023-06-10T05:08:05;6.07;;;4.20;;
30681;SDS011;17439;48.092;11.842;2023-06-10T05:10:34;5.72;;;4.13;;
30681;SDS011;17439;48.092;11.842;2023-06-10T05:13:01;6.18;;;4.20;;
30681;SDS011;17439;48.092;11.842;2023-06-10T05:15:27;6.25;;;4.90;;
30681;SDS011;17439;48.092;11.842;2023-06-10T05:17:56;9.68;;;4.85;;
30681;SDS011;17439;48.092;11.842;2023-06-10T05:20:23;6.25;;;4.20;;
30681;SDS011;17439;48.092;11.842;2023-06-10T05:22:50;8.30;;;5.00;;
30681;SDS011;17439;48.092;11.842;2023-06-10T05:25:17;6.72;;;4.95;;
30681;SDS011;17439;48.092;11.842;2023-06-10T05:27:44;5.57;;;4.53;;
30681;SDS011;17439;48.092;11.842;2023-06-10T05:30:11;6.50;;;4.38;;
30681;SDS011;17439;48.092;11.842;2023-06-10T05:32:38;5.37;;;4.20;;
30681;SDS011;17439;48.092;11.842;2023-06-10T05:35:04;5.55;;;4.28;;
30681;SDS011;17439;48.092;11.842;2023-06-10T05:37:33;8.90;;;5.03;;
30681;SDS011;17439;48.092;11.842;2023-06-10T05:40:01;7.68;;;4.85;;
30681;SDS011;17439;48.092;11.842;2023-06-10T05:42:28;7.30;;;4.82;;
30681;SDS011;17439;48.092;11.842;2023-06-10T05:44:55;11.90;;;6.38;;
30681;SDS011;17439;48.092;11.842;2023-06-10T05:47:21;7.43;;;4.50;;
30681;SDS011;17439;48.092;11.842;2023-06-10T05:49:48;6.35;;;4.70;;
30681;SDS011;17439;48.092;11.842;2023-06-10T05:52:15;6.80;;;4.85;;
30681;SDS011;17439;48.092;11.842;2023-06-10T05:54:41;7.18;;;4.68;;
30681;SDS011;17439;48.092;11.842;2023-06-10T05:57:08;9.32;;;5.68;;
30681;SDS011;17439;48.092;11.842;2023-06-10T05:59:35;11.88;;;5.68;;
30681;SDS011;17439;48.092;11.842;2023-06-10T06:02:02;9.38;;;5.15;;
30681;SDS011;17439;48.092;11.842;2023-06-10T06:04:29;7.28;;;4.78;;
30681;SDS011;17439;48.092;11.842;2023-06-10T06:06:55;7.25;;;5.20;;
30681;SDS011;17439;48.092;11.842;2023-06-10T06:09:22;7.18;;;5.15;;
30681;SDS011;17439;48.092;11.842;2023-06-10T06:11:49;7.70;;;5.13;;
30681;SDS011;17439;48.092;11.842;2023-06-10T06:14:15;7.18;;;4.82;;
30681;SDS011;17439;48.092;11.842;2023-06-10T06:16:42;9.32;;;4.93;;
30681;SDS011;17439;48.092;11.842;2023-06-10T06:19:09;7.95;;;5.45;;
30681;SDS011;17439;48.092;11.842;2023-06-10T06:21:36;7.93;;;5.20;;
30681;SDS011;17439;48.092;11.842;2023-06-10T06:24:03;6.57;;;4.57;;
30681;SDS011;17439;48.092;11.842;2023-06-10T06:26:29;5.28;;;4.28;;
30681;SDS011;17439;48.092;11.842;2023-06-10T06:28:56;9.77;;;4.45;;
30681;SDS011;17439;48.092;11.842;2023-06-10T06:31:23;5.45;;;4.50;;
30681;SDS011;17439;48.092;11.842;2023-06-10T06:33:50;5.07;;;3.55;;
30681;SDS011;17439;48.092;11.842;2023-06-10T06:36:16;5.90;;;4.22;;
30681;SDS011;17439;48.092;11.842;2023-06-10T06:38:43;4.95;;;3.88;;
30681;SDS011;17439;48.092;11.842;2023-06-10T06:41:10;6.97;;;4.97;;
30681;SDS011;17439;48.092;11.842;2023-06-10T06:43:36;7.18;;;4.22;;
30681;SDS011;17439;48.092;11.842;2023-06-10T06:46:22;5.78;;;3.70;;
30681;SDS011;17439;48.092;11.842;2023-06-10T06:48:49;8.90;;;4.90;;
30681;SDS011;17439;48.092;11.842;2023-06-10T06:51:16;7.65;;;4.50;;
30681;SDS011;17439;48.092;11.842;2023-06-10T06:53:43;6.10;;;4.60;;
30681;SDS011;17439;48.092;11.842;2023-06-10T06:56:12;5.63;;;4.25;;
30681;SDS011;17439;48.092;11.842;2023-06-10T06:58:39;6.28;;;4.57;;
30681;SDS011;17439;48.092;11.842;2023-06-10T07:01:06;17.45;;;4.25;;
30681;SDS011;17439;48.092;11.842;2023-06-10T07:03:33;5.90;;;3.95;;
30681;SDS011;17439;48.092;11.842;2023-06-10T07:05:59;6.28;;;4.40;;
30681;SDS011;17439;48.092;11.842;2023-06-10T07:08:26;4.53;;;3.45;;
30681;SDS011;17439;48.092;11.842;2023-06-10T07:10:53;4.35;;;3.47;;
30681;SDS011;17439;48.092;11.842;2023-06-10T07:13:19;5.65;;;3.70;;
30681;SDS011;17439;48.092;11.842;2023-06-10T07:15:46;4.72;;;3.67;;
30681;SDS011;17439;48.092;11.842;2023-06-10T07:18:14;6.38;;;4.60;;
30681;SDS011;17439;48.092;11.842;2023-06-10T07:20:41;4.82;;;3.45;;
30681;SDS011;17439;48.092;11.842;2023-06-10T07:23:08;4.72;;;3.63;;
30681;SDS011;17439;48.092;11.842;2023-06-10T07:25:35;4.57;;;3.30;;
30681;SDS011;17439;48.092;11.842;2023-06-10T07:28:01;4.55;;;3.50;;
30681;SDS011;17439;48.092;11.842;2023-06-10T07:30:31;4.68;;;3.72;;
30681;SDS011;17439;48.092;11.842;2023-06-10T07:32:58;3.75;;;3.00;;
30681;SDS011;17439;48.092;11.842;2023-06-10T07:35:24;4.30;;;3.10;;
30681;SDS011;17439;48.092;11.842;2023-06-10T07:37:51;5.15;;;3.95;;
30681;SDS011;17439;48.092;11.842;2023-06-10T07:40:18;4.45;;;3.28;;
30681;SDS011;17439;48.092;11.842;2023-06-10T07:42:45;4.80;;;3.30;;
30681;SDS011;17439;48.092;11.842;2023-06-10T07:45:11;4.40;;;2.97;;
30681;SDS011;17439;48.092;11.842;2023-06-10T07:47:38;4.50;;;3.58;;
30681;SDS011;17439;48.092;11.842;2023-06-10T07:50:05;8.82;;;3.60;;
30681;SDS011;17439;48.092;11.842;2023-06-10T07:52:32;5.00;;;3.55;;
30681;SDS011;17439;48.092;11.842;2023-06-10T07:54:59;4.40;;;3.67;;
30681;SDS011;17439;48.092;11.842;2023-06-10T07:57:25;4.20;;;2.78;;
30681;SDS011;17439;48.092;11.842;2023-06-10T07:59:52;4.65;;;3.33;;
30681;SDS011;17439;48.092;11.842;2023-06-10T08:02:18;5.70;;;3.40;;
30681;SDS011;17439;48.092;11.842;2023-06-10T08:04:46;3.90;;;2.38;;
30681;SDS011;17439;48.092;11.842;2023-06-10T08:07:13;5.65;;;3.00;;
30681;SDS011;17439;48.092;11.842;2023-06-10T08:09:40;3.65;;;2.45;;
30681;SDS011;17439;48.092;11.842;2023-06-10T08:12:07;3.75;;;2.90;;
30681;SDS011;17439;48.092;11.842;2023-06-10T08:14:37;3.65;;;2.83;;
30681;SDS011;17439;48.092;11.842;2023-06-10T08:17:04;2.38;;;1.98;;
30681;SDS011;17439;48.092;11.842;2023-06-10T08:19:31;2.40;;;2.10;;
30681;SDS011;17439;48.092;11.842;2023-06-10T08:21:58;2.67;;;2.38;;
30681;SDS011;17439;48.092;11.842;2023-06-10T08:24:25;3.83;;;2.63;;
30681;SDS011;17439;48.092;11.842;2023-06-10T08:26:51;2.13;;;1.92;;
30681;SDS011;17439;48.092;11.842;2023-06-10T08:29:18;5.28;;;2.67;;
30681;SDS011;17439;48.092;11.842;2023-06-10T08:31:45;3.85;;;2.88;;
30681;SDS011;17439;48.092;11.842;2023-06-10T08:34:12;3.00;;;2.13;;
30681;SDS011;17439;48.092;11.842;2023-06-10T08:36:39;3.92;;;2.78;;
30681;SDS011;17439;48.092;11.842;2023-06-10T08:39:05;2.60;;;2.40;;
30681;SDS011;17439;48.092;11.842;2023-06-10T08:41:35;4.13;;;2.38;;
30681;SDS011;17439;48.092;11.842;2023-06-10T08:44:04;4.47;;;3.15;;
30681;SDS011;17439;48.092;11.842;2023-06-10T08:46:39;2.97;;;2.30;;
30681;SDS011;17439;48.092;11.842;2023-06-10T08:49:14;4.18;;;3.05;;
30681;SDS011;17439;48.092;11.842;2023-06-10T08:51:44;3.22;;;2.15;;
30681;SDS011;17439;48.092;11.842;2023-06-10T08:54:13;3.45;;;2.40;;
30681;SDS011;17439;48.092;11.842;2023-06-10T08:56:44;4.30;;;2.88;;
30681;SDS011;17439;48.092;11.842;2023-06-10T08:59:14;3.22;;;2.67;;
30681;SDS011;17439;48.092;11.842;2023-06-10T09:01:42;4.28;;;2.90;;
30681;SDS011;17439;48.092;11.842;2023-06-10T09:04:09;4.32;;;3.00;;
30681;SDS011;17439;48.092;11.842;2023-06-10T09:06:36;4.45;;;2.88;;
30681;SDS011;17439;48.092;11.842;2023-06-10T09:09:05;5.78;;;3.45;;
30681;SDS011;17439;48.092;11.842;2023-06-10T09:11:33;6.40;;;2.70;;
30681;SDS011;17439;48.092;11.842;2023-06-10T09:13:59;2.58;;;2.35;;
30681;SDS011;17439;48.092;11.842;2023-06-10T09:16:26;4.57;;;3.05;;
30681;SDS011;17439;48.092;11.842;2023-06-10T09:18:53;2.72;;;2.10;;
30681;SDS011;17439;48.092;11.842;2023-06-10T09:21:22;2.27;;;1.83;;
30681;SDS011;17439;48.092;11.842;2023-06-10T09:23:49;2.97;;;2.67;;
30681;SDS011;17439;48.092;11.842;2023-06-10T09:26:18;3.55;;;2.40;;
30681;SDS011;17439;48.092;11.842;2023-06-10T09:28:47;7.18;;;2.63;;
30681;SDS011;17439;48.092;11.842;2023-06-10T09:31:15;3.53;;;2.22;;
30681;SDS011;17439;48.092;11.842;2023-06-10T09:36:09;3.47;;;2.50;;
30681;SDS011;17439;48.092;11.842;2023-06-10T09:38:36;2.80;;;1.98;;
30681;SDS011;17439;48.092;11.842;2023-06-10T09:41:03;2.63;;;1.75;;
30681;SDS011;17439;48.092;11.842;2023-06-10T09:43:39;3.03;;;2.47;;
30681;SDS011;17439;48.092;11.842;2023-06-10T09:46:13;2.65;;;2.33;;
30681;SDS011;17439;48.092;11.842;2023-06-10T09:48:41;3.80;;;2.15;;
30681;SDS011;17439;48.092;11.842;2023-06-10T09:51:09;1.92;;;1.63;;
30681;SDS011;17439;48.092;11.842;2023-06-10T09:53:37;2.30;;;2.05;;
30681;SDS011;17439;48.092;11.842;2023-06-10T09:56:03;3.60;;;2.20;;
30681;SDS011;17439;48.092;11.842;2023-06-10T09:58:35;5.13;;;2.00;;
30681;SDS011;17439;48.092;11.842;2023-06-10T10:01:08;3.08;;;2.45;;
30681;SDS011;17439;48.092;11.842;2023-06-10T10:03:43;1.90;;;1.65;;
30681;SDS011;17439;48.092;11.842;2023-06-10T10:06:14;2.63;;;2.33;;
30681;SDS011;17439;48.092;11.842;2023-06-10T10:08:41;2.72;;;1.77;;
30681;SDS011;17439;48.092;11.842;2023-06-10T10:13:37;2.95;;;2.15;;
30681;SDS011;17439;48.092;11.842;2023-06-10T10:16:06;3.70;;;2.87;;
30681;SDS011;17439;48.092;11.842;2023-06-10T10:18:39;2.83;;;2.10;;
30681;SDS011;17439;48.092;11.842;2023-06-10T10:21:11;3.60;;;2.50;;
30681;SDS011;17439;48.092;11.842;2023-06-10T10:23:48;4.75;;;3.00;;
30681;SDS011;17439;48.092;11.842;2023-06-10T10:26:22;3.17;;;2.47;;
30681;SDS011;17439;48.092;11.842;2023-06-10T10:28:56;2.92;;;2.35;;
30681;SDS011;17439;48.092;11.842;2023-06-10T10:31:32;2.58;;;1.95;;
30681;SDS011;17439;48.092;11.842;2023-06-10T10:34:02;3.03;;;2.17;;
30681;SDS011;17439;48.092;11.842;2023-06-10T10:36:34;4.85;;;2.28;;
30681;SDS011;17439;48.092;11.842;2023-06-10T10:39:02;2.38;;;1.88;;
30681;SDS011;17439;48.092;11.842;2023-06-10T10:41:31;3.42;;;2.50;;
30681;SDS011;17439;48.092;11.842;2023-06-10T10:43:59;2.60;;;2.28;;
30681;SDS011;17439;48.092;11.842;2023-06-10T10:46:27;2.17;;;1.83;;
30681;SDS011;17439;48.092;11.842;2023-06-10T10:48:54;2.67;;;1.92;;
30681;SDS011;17439;48.092;11.842;2023-06-10T10:51:23;2.67;;;1.90;;
30681;SDS011;17439;48.092;11.842;2023-06-10T10:56:36;2.80;;;1.92;;
30681;SDS011;17439;48.092;11.842;2023-06-10T10:59:06;2.53;;;1.85;;
30681;SDS011;17439;48.092;11.842;2023-06-10T11:01:43;1.60;;;1.50;;
30681;SDS011;17439;48.092;11.842;2023-06-10T11:04:10;2.72;;;1.92;;
30681;SDS011;17439;48.092;11.842;2023-06-10T11:06:37;2.00;;;1.60;;
30681;SDS011;17439;48.092;11.842;2023-06-10T11:09:25;4.90;;;1.70;;
30681;SDS011;17439;48.092;11.842;2023-06-10T11:11:56;2.70;;;1.73;;
30681;SDS011;17439;48.092;11.842;2023-06-10T11:14:30;3.25;;;2.40;;
30681;SDS011;17439;48.092;11.842;2023-06-10T11:16:59;3.17;;;2.03;;
30681;SDS011;17439;48.092;11.842;2023-06-10T11:19:35;2.97;;;2.25;;
30681;SDS011;17439;48.092;11.842;2023-06-10T11:22:04;2.95;;;1.98;;
30681;SDS011;17439;48.092;11.842;2023-06-10T11:24:32;2.63;;;1.85;;
30681;SDS011;17439;48.092;11.842;2023-06-10T11:27:18;2.70;;;2.17;;
30681;SDS011;17439;48.092;11.842;2023-06-10T11:29:57;3.72;;;1.92;;
30681;SDS011;17439;48.092;11.842;2023-06-10T11:32:44;2.58;;;2.10;;
30681;SDS011;17439;48.092;11.842;2023-06-10T11:35:11;2.92;;;2.10;;
30681;SDS011;17439;48.092;11.842;2023-06-10T11:37:39;2.15;;;1.90;;
30681;SDS011;17439;48.092;11.842;2023-06-10T11:40:06;2.42;;;1.55;;
30681;SDS011;17439;48.092;11.842;2023-06-10T11:42:33;2.63;;;2.00;;
30681;SDS011;17439;48.092;11.842;2023-06-10T11:45:06;2.92;;;2.38;;
30681;SDS011;17439;48.092;11.842;2023-06-10T11:47:34;3.08;;;2.42;;
30681;SDS011;17439;48.092;11.842;2023-06-10T11:50:00;2.25;;;2.00;;
30681;SDS011;17439;48.092;11.842;2023-06-10T11:52:30;2.50;;;2.30;;
30681;SDS011;17439;48.092;11.842;2023-06-10T11:54:57;2.38;;;2.03;;
30681;SDS011;17439;48.092;11.842;2023-06-10T11:57:23;3.33;;;2.42;;
30681;SDS011;17439;48.092;11.842;2023-06-10T11:59:50;2.80;;;2.03;;
30681;SDS011;17439;48.092;11.842;2023-06-10T12:02:17;2.63;;;2.40;;
30681;SDS011;17439;48.092;11.842;2023-06-10T12:04:44;4.32;;;2.30;;
30681;SDS011;17439;48.092;11.842;2023-06-10T12:07:18;3.10;;;2.20;;
30681;SDS011;17439;48.092;11.842;2023-06-10T12:09:45;3.47;;;2.08;;
30681;SDS011;17439;48.092;11.842;2023-06-10T12:12:12;2.58;;;2.05;;
30681;SDS011;17439;48.092;11.842;2023-06-10T12:14:57;2.70;;;2.23;;
30681;SDS011;17439;48.092;11.842;2023-06-10T12:20:00;2.58;;;2.38;;
30681;SDS011;17439;48.092;11.842;2023-06-10T12:22:35;2.75;;;2.35;;
30681;SDS011;17439;48.092;11.842;2023-06-10T12:25:03;3.40;;;2.70;;
30681;SDS011;17439;48.092;11.842;2023-06-10T12:27:31;2.85;;;2.10;;
30681;SDS011;17439;48.092;11.842;2023-06-10T12:29:58;3.28;;;2.40;;
30681;SDS011;17439;48.092;11.842;2023-06-10T12:32:45;4.18;;;2.28;;
30681;SDS011;17439;48.092;11.842;2023-06-10T12:35:13;2.70;;;2.08;;
30681;SDS011;17439;48.092;11.842;2023-06-10T12:38:00;3.75;;;2.83;;
30681;SDS011;17439;48.092;11.842;2023-06-10T12:40:32;3.53;;;2.95;;
30681;SDS011;17439;48.092;11.842;2023-06-10T12:43:01;5.45;;;2.78;;
30681;SDS011;17439;48.092;11.842;2023-06-10T12:48:04;4.03;;;2.92;;
30681;SDS011;17439;48.092;11.842;2023-06-10T12:50:32;3.22;;;2.67;;
30681;SDS011;17439;48.092;11.842;2023-06-10T12:52:59;4.63;;;3.00;;
30681;SDS011;17439;48.092;11.842;2023-06-10T12:55:26;3.92;;;2.50;;
30681;SDS011;17439;48.092;11.842;2023-06-10T12:57:53;6.32;;;3.58;;
30681;SDS011;17439;48.092;11.842;2023-06-10T13:00:19;3.42;;;2.70;;
30681;SDS011;17439;48.092;11.842;2023-06-10T13:02:48;4.57;;;3.60;;
30681;SDS011;17439;48.092;11.842;2023-06-10T13:05:15;4.35;;;2.45;;
30681;SDS011;17439;48.092;11.842;2023-06-10T13:07:43;6.20;;;3.08;;
30681;SDS011;17439;48.092;11.842;2023-06-10T13:10:10;2.90;;;2.60;;
30681;SDS011;17439;48.092;11.842;2023-06-10T13:12:37;3.13;;;2.38;;
30681;SDS011;17439;48.092;11.842;2023-06-10T13:15:13;3.78;;;2.90;;
30681;SDS011;17439;48.092;11.842;2023-06-10T13:17:41;5.55;;;2.45;;
30681;SDS011;17439;48.092;11.842;2023-06-10T13:20:09;2.40;;;2.10;;
30681;SDS011;17439;48.092;11.842;2023-06-10T13:22:36;3.67;;;2.77;;
30681;SDS011;17439;48.092;11.842;2023-06-10T13:25:03;3.53;;;2.90;;
30681;SDS011;17439;48.092;11.842;2023-06-10T13:27:31;3.05;;;2.47;;
30681;SDS011;17439;48.092;11.842;2023-06-10T13:29:58;3.67;;;2.87;;
30681;SDS011;17439;48.092;11.842;2023-06-10T13:32:25;3.67;;;2.78;;
30681;SDS011;17439;48.092;11.842;2023-06-10T13:34:52;3.00;;;2.60;;
30681;SDS011;17439;48.092;11.842;2023-06-10T13:37:18;3.15;;;2.38;;
30681;SDS011;17439;48.092;11.842;2023-06-10T13:39:45;3.10;;;2.27;;
30681;SDS011;17439;48.092;11.842;2023-06-10T13:42:12;4.13;;;2.40;;
30681;SDS011;17439;48.092;11.842;2023-06-10T13:44:39;2.40;;;1.98;;
30681;SDS011;17439;48.092;11.842;2023-06-10T13:47:05;2.88;;;2.28;;
30681;SDS011;17439;48.092;11.842;2023-06-10T13:49:32;4.45;;;2.40;;
30681;SDS011;17439;48.092;11.842;2023-06-10T13:51:59;4.55;;;2.20;;
30681;SDS011;17439;48.092;11.842;2023-06-10T13:54:26;3.10;;;2.35;;
30681;SDS011;17439;48.092;11.842;2023-06-10T13:56:53;2.80;;;2.13;;
30681;SDS011;17439;48.092;11.842;2023-06-10T13:59:20;2.63;;;2.17;;
30681;SDS011;17439;48.092;11.842;2023-06-10T14:01:47;4.30;;;2.37;;
30681;SDS011;17439;48.092;11.842;2023-06-10T14:04:13;3.20;;;2.30;;
30681;SDS011;17439;48.092;11.842;2023-06-10T14:06:40;3.83;;;2.08;;
30681;SDS011;17439;48.092;11.842;2023-06-10T14:09:07;5.95;;;1.90;;
30681;SDS011;17439;48.092;11.842;2023-06-10T14:11:34;2.20;;;1.88;;
30681;SDS011;17439;48.092;11.842;2023-06-10T14:14:00;4.00;;;2.00;;
30681;SDS011;17439;48.092;11.842;2023-06-10T14:16:27;2.55;;;1.58;;
30681;SDS011;17439;48.092;11.842;2023-06-10T14:18:54;3.47;;;2.38;;
30681;SDS011;17439;48.092;11.842;2023-06-10T14:21:21;5.05;;;2.47;;
30681;SDS011;17439;48.092;11.842;2023-06-10T14:23:47;1.90;;;1.70;;
30681;SDS011;17439;48.092;11.842;2023-06-10T14:26:14;3.15;;;2.40;;
30681;SDS011;17439;48.092;11.842;2023-06-10T14:28:41;3.58;;;2.60;;
30681;SDS011;17439;48.092;11.842;2023-06-10T14:31:07;2.72;;;2.30;;
30681;SDS011;17439;48.092;11.842;2023-06-10T14:33:34;2.75;;;2.22;;
30681;SDS011;17439;48.092;11.842;2023-06-10T14:36:01;3.03;;;2.50;;
30681;SDS011;17439;48.092;11.842;2023-06-10T14:38:28;3.00;;;2.25;;
30681;SDS011;17439;48.092;11.842;2023-06-10T14:40:54;3.10;;;2.80;;
30681;SDS011;17439;48.092;11.842;2023-06-10T14:43:21;5.20;;;3.03;;
30681;SDS011;17439;48.092;11.842;2023-06-10T14:45:48;3.13;;;2.60;;
30681;SDS011;17439;48.092;11.842;2023-06-10T14:48:14;5.32;;;2.72;;
30681;SDS011;17439;48.092;11.842;2023-06-10T14:50:41;2.35;;;2.15;;
30681;SDS011;17439;48.092;11.842;2023-06-10T14:53:08;4.07;;;2.97;;
30681;SDS011;17439;48.092;11.842;2023-06-10T14:55:34;2.58;;;2.38;;
30681;SDS011;17439;48.092;11.842;2023-06-10T14:58:01;3.72;;;3.08;;
30681;SDS011;17439;48.092;11.842;2023-06-10T15:00:28;3.47;;;3.17;;